createdAt,value
2019-01-08T00:00:24.513Z,5.16
2019-01-08T00:02:02.020Z,5.15
2019-01-08T00:03:37.671Z,5.17
2019-01-08T00:05:13.319Z,5.20
2019-01-08T00:06:48.813Z,5.20
2019-01-08T00:08:25.570Z,5.23
2019-01-08T00:10:01.848Z,5.26
2019-01-08T00:11:37.734Z,5.28
2019-01-08T00:13:14.054Z,5.28
2019-01-08T00:14:49.648Z,5.29
2019-01-08T00:16:25.189Z,5.30
2019-01-08T00:18:06.151Z,5.31
2019-01-08T00:19:53.340Z,5.30
2019-01-08T00:21:28.630Z,5.31
2019-01-08T00:23:07.732Z,5.33
2019-01-08T00:24:45.226Z,5.34
2019-01-08T00:26:20.891Z,5.34
2019-01-08T00:27:56.484Z,5.34
2019-01-08T00:29:33.517Z,5.34
2019-01-08T00:31:10.846Z,5.34
2019-01-08T00:32:49.608Z,5.38
2019-01-08T00:34:25.108Z,5.39
2019-01-08T00:36:00.443Z,5.39
2019-01-08T00:37:37.033Z,5.39
2019-01-08T00:39:12.449Z,5.37
2019-01-08T00:40:48.773Z,5.34
2019-01-08T00:42:24.047Z,5.30
2019-01-08T00:43:59.725Z,5.30
2019-01-08T00:45:38.759Z,5.28
2019-01-08T00:47:14.217Z,5.28
2019-01-08T00:48:50.810Z,5.28
2019-01-08T00:50:34.020Z,5.26
2019-01-08T00:52:09.238Z,5.24
2019-01-08T00:53:44.630Z,5.25
2019-01-08T00:55:20.214Z,5.24
2019-01-08T00:56:55.520Z,5.27
2019-01-08T00:58:30.964Z,5.26
2019-01-08T01:00:09.572Z,5.23
2019-01-08T01:01:47.805Z,5.22
2019-01-08T01:03:23.574Z,5.23
2019-01-08T01:04:59.037Z,5.20
2019-01-08T01:06:34.583Z,5.22
2019-01-08T01:08:10.321Z,5.21
2019-01-08T01:09:45.670Z,5.21
2019-01-08T01:11:21.178Z,5.15
2019-01-08T01:12:56.353Z,5.13
2019-01-08T01:14:31.673Z,5.12
2019-01-08T01:16:07.018Z,5.10
2019-01-08T01:17:42.207Z,5.11
2019-01-08T01:19:17.883Z,5.08
2019-01-08T01:20:53.691Z,5.05
2019-01-08T01:22:28.998Z,5.00
2019-01-08T01:24:04.295Z,4.81
2019-01-08T01:25:39.975Z,4.82
2019-01-08T01:27:15.649Z,4.80
2019-01-08T01:28:59.749Z,4.75
2019-01-08T01:30:28.383Z,4.70
2019-01-08T01:32:04.608Z,4.67
2019-01-08T01:33:40.091Z,4.65
2019-01-08T01:35:15.486Z,4.64
2019-01-08T01:36:50.684Z,4.62
2019-01-08T01:38:25.858Z,4.61
2019-01-08T01:40:01.616Z,4.62
2019-01-08T01:41:37.186Z,4.62
2019-01-08T01:43:15.674Z,4.62
2019-01-08T01:44:52.705Z,4.62
2019-01-08T01:46:28.486Z,4.61
2019-01-08T01:48:06.341Z,4.59
2019-01-08T01:49:41.924Z,4.58
2019-01-08T01:51:17.399Z,4.57
2019-01-08T01:52:52.596Z,4.54
2019-01-08T01:54:27.791Z,4.49
2019-01-08T01:56:04.580Z,4.47
2019-01-08T01:57:42.265Z,4.47
2019-01-08T01:59:17.451Z,4.46
2019-01-08T02:00:52.707Z,4.47
2019-01-08T02:02:28.343Z,4.43
2019-01-08T02:04:04.198Z,4.44
2019-01-08T02:05:39.375Z,4.43
2019-01-08T02:07:14.556Z,4.41
2019-01-08T02:08:49.833Z,4.41
2019-01-08T02:10:25.406Z,4.39
2019-01-08T02:12:00.853Z,4.36
2019-01-08T02:13:36.049Z,4.35
2019-01-08T02:15:12.704Z,4.32
2019-01-08T02:16:47.987Z,4.30
2019-01-08T02:18:23.247Z,4.28
2019-01-08T02:19:58.758Z,4.27
2019-01-08T02:21:34.264Z,4.28
2019-01-08T02:23:09.696Z,4.26
2019-01-08T02:24:44.891Z,4.26
2019-01-08T02:26:20.052Z,4.24
2019-01-08T02:27:55.371Z,4.24
2019-01-08T02:29:30.608Z,4.25
2019-01-08T02:31:06.043Z,4.26
2019-01-08T02:32:41.425Z,4.27
2019-01-08T02:34:16.892Z,4.26
2019-01-08T02:35:52.359Z,4.23
2019-01-08T02:37:27.596Z,4.22
2019-01-08T02:39:02.899Z,4.20
2019-01-08T02:40:38.226Z,4.18
2019-01-08T02:42:13.993Z,4.18
2019-01-08T02:43:49.394Z,4.15
2019-01-08T02:45:24.597Z,4.13
2019-01-08T02:47:00.873Z,4.11
2019-01-08T02:48:37.099Z,4.10
2019-01-08T02:50:13.710Z,4.10
2019-01-08T02:51:48.905Z,4.07
2019-01-08T02:53:24.112Z,4.06
2019-01-08T02:54:59.321Z,4.05
2019-01-08T02:56:34.601Z,4.01
2019-01-08T02:58:14.163Z,4.01
2019-01-08T02:59:53.736Z,4.00
2019-01-08T03:01:34.403Z,4.00
2019-01-08T03:03:11.837Z,3.99
2019-01-08T03:04:47.392Z,3.97
2019-01-08T03:06:25.422Z,3.94
2019-01-08T03:08:00.739Z,3.94
2019-01-08T03:09:39.070Z,3.93
2019-01-08T03:11:14.423Z,3.92
2019-01-08T03:12:49.921Z,3.91
2019-01-08T03:14:25.087Z,3.89
2019-01-08T03:16:00.311Z,3.89
2019-01-08T03:17:36.125Z,3.89
2019-01-08T03:19:11.540Z,3.86
2019-01-08T03:20:47.023Z,3.87
2019-01-08T03:22:22.170Z,3.85
2019-01-08T03:23:57.341Z,3.84
2019-01-08T03:25:34.120Z,3.84
2019-01-08T03:27:09.302Z,3.81
2019-01-08T03:28:44.536Z,3.79
2019-01-08T03:30:20.047Z,3.79
2019-01-08T03:31:56.856Z,3.79
2019-01-08T03:33:32.146Z,3.79
2019-01-08T03:35:08.943Z,3.81
2019-01-08T03:36:44.087Z,3.80
2019-01-08T03:38:19.410Z,3.79
2019-01-08T03:39:54.632Z,3.79
2019-01-08T03:41:30.002Z,3.79
2019-01-08T03:43:06.159Z,3.77
2019-01-08T03:44:41.537Z,3.77
2019-01-08T03:46:17.117Z,3.75
2019-01-08T03:47:52.357Z,3.73
2019-01-08T03:49:27.524Z,3.73
2019-01-08T03:51:03.133Z,3.71
2019-01-08T03:52:38.415Z,3.73
2019-01-08T03:54:13.707Z,3.71
2019-01-08T03:55:48.879Z,3.69
2019-01-08T03:57:24.211Z,3.68
2019-01-08T03:58:59.632Z,3.66
2019-01-08T04:00:34.913Z,3.66
2019-01-08T04:02:10.270Z,3.65
2019-01-08T04:03:45.832Z,3.66
2019-01-08T04:05:21.438Z,3.66
2019-01-08T04:06:57.068Z,3.65
2019-01-08T04:08:32.232Z,3.64
2019-01-08T04:10:08.283Z,3.62
2019-01-08T04:11:43.542Z,3.62
2019-01-08T04:13:19.024Z,3.63
2019-01-08T04:14:54.319Z,3.60
2019-01-08T04:16:29.511Z,3.59
2019-01-08T04:18:05.965Z,3.60
2019-01-08T04:19:41.222Z,3.58
2019-01-08T04:21:16.678Z,3.62
2019-01-08T04:22:52.157Z,3.60
2019-01-08T04:24:27.534Z,3.62
2019-01-08T04:26:02.811Z,3.60
2019-01-08T04:27:38.047Z,3.59
2019-01-08T04:29:13.237Z,3.59
2019-01-08T04:30:48.604Z,3.58
2019-01-08T04:32:24.050Z,3.57
2019-01-08T04:33:59.447Z,3.56
2019-01-08T04:35:36.214Z,3.56
2019-01-08T04:37:11.395Z,3.55
2019-01-08T04:38:46.662Z,3.55
2019-01-08T04:40:21.912Z,3.57
2019-01-08T04:41:57.528Z,3.56
2019-01-08T04:43:34.592Z,3.54
2019-01-08T04:45:09.751Z,3.53
2019-01-08T04:46:45.501Z,3.53
2019-01-08T04:48:20.687Z,3.53
2019-01-08T04:49:56.152Z,3.51
2019-01-08T04:51:31.297Z,3.49
2019-01-08T04:53:07.361Z,3.50
2019-01-08T04:54:42.712Z,3.48
2019-01-08T04:56:18.402Z,3.48
2019-01-08T04:57:54.175Z,3.47
2019-01-08T04:59:29.841Z,3.47
2019-01-08T05:01:05.103Z,3.46
2019-01-08T05:02:40.433Z,3.44
2019-01-08T05:04:16.023Z,3.44
2019-01-08T05:05:53.610Z,3.44
2019-01-08T05:07:29.021Z,3.46
2019-01-08T05:09:05.520Z,3.44
2019-01-08T05:10:40.756Z,3.43
2019-01-08T05:12:16.074Z,3.41
2019-01-08T05:13:51.615Z,3.42
2019-01-08T05:15:26.796Z,3.41
2019-01-08T05:17:02.023Z,3.43
2019-01-08T05:18:37.338Z,3.43
2019-01-08T05:20:12.519Z,3.41
2019-01-08T05:21:48.071Z,3.41
2019-01-08T05:23:23.446Z,3.37
2019-01-08T05:24:58.710Z,3.37
2019-01-08T05:26:38.330Z,3.38
2019-01-08T05:28:13.641Z,3.38
2019-01-08T05:29:49.655Z,3.37
2019-01-08T05:31:25.705Z,3.38
2019-01-08T05:33:01.006Z,3.36
2019-01-08T05:34:36.300Z,3.37
2019-01-08T05:36:11.620Z,3.37
2019-01-08T05:37:47.124Z,3.36
2019-01-08T05:39:22.403Z,3.36
2019-01-08T05:40:57.663Z,3.35
2019-01-08T05:42:33.660Z,3.36
2019-01-08T05:44:09.025Z,3.32
2019-01-08T05:45:44.530Z,3.35
2019-01-08T05:47:19.703Z,3.35
2019-01-08T05:48:55.053Z,3.36
2019-01-08T05:50:30.237Z,3.37
2019-01-08T05:52:05.563Z,3.41
2019-01-08T05:53:41.218Z,3.42
2019-01-08T05:55:18.237Z,3.41
2019-01-08T05:56:53.810Z,3.40
2019-01-08T05:58:29.035Z,3.40
2019-01-08T06:00:05.653Z,3.41
2019-01-08T06:01:40.847Z,3.41
2019-01-08T06:03:16.249Z,3.44
2019-01-08T06:04:51.707Z,3.43
2019-01-08T06:06:27.467Z,3.41
2019-01-08T06:08:03.005Z,3.42
2019-01-08T06:09:38.564Z,3.42
2019-01-08T06:11:13.882Z,3.42
2019-01-08T06:12:49.183Z,3.44
2019-01-08T06:14:24.872Z,3.45
2019-01-08T06:16:00.535Z,3.46
2019-01-08T06:17:35.886Z,3.45
2019-01-08T06:19:11.968Z,3.46
2019-01-08T06:20:47.994Z,3.44
2019-01-08T06:22:24.601Z,3.36
2019-01-08T06:23:59.824Z,3.34
2019-01-08T06:25:34.999Z,3.28
2019-01-08T06:27:10.559Z,3.23
2019-01-08T06:28:46.321Z,3.19
2019-01-08T06:30:24.807Z,3.18
2019-01-08T06:31:58.479Z,3.19
2019-01-08T06:33:34.065Z,3.19
2019-01-08T06:35:09.470Z,3.19
2019-01-08T06:36:45.122Z,3.22
2019-01-08T06:38:20.966Z,3.21
2019-01-08T06:39:56.562Z,3.22
2019-01-08T06:41:32.021Z,3.21
2019-01-08T06:43:07.323Z,3.20
2019-01-08T06:44:42.582Z,3.18
2019-01-08T06:46:18.107Z,3.19
2019-01-08T06:47:55.284Z,3.18
2019-01-08T06:49:30.537Z,3.16
2019-01-08T06:51:05.928Z,3.13
2019-01-08T06:52:42.285Z,3.10
2019-01-08T06:54:19.093Z,3.08
2019-01-08T06:55:54.690Z,3.08
2019-01-08T06:57:30.006Z,3.08
2019-01-08T06:59:05.542Z,3.07
2019-01-08T07:00:41.222Z,3.04
2019-01-08T07:02:16.686Z,3.03
2019-01-08T07:03:52.052Z,3.01
2019-01-08T07:05:31.029Z,2.99
2019-01-08T07:07:06.601Z,2.98
2019-01-08T07:08:41.934Z,2.96
2019-01-08T07:10:17.250Z,2.91
2019-01-08T07:11:52.734Z,2.87
2019-01-08T07:13:28.057Z,2.86
2019-01-08T07:15:05.860Z,2.84
2019-01-08T07:16:44.475Z,2.83
2019-01-08T07:18:20.179Z,2.78
2019-01-08T07:19:55.743Z,2.76
2019-01-08T07:21:31.283Z,2.71
2019-01-08T07:23:06.560Z,2.65
2019-01-08T07:24:42.123Z,2.64
2019-01-08T07:26:17.677Z,2.63
2019-01-08T07:27:52.849Z,2.61
2019-01-08T07:29:30.038Z,2.59
2019-01-08T07:31:05.650Z,2.58
2019-01-08T07:32:40.803Z,2.56
2019-01-08T07:34:16.061Z,2.55
2019-01-08T07:35:51.627Z,2.55
2019-01-08T07:37:27.183Z,2.46
2019-01-08T07:39:03.283Z,2.42
2019-01-08T07:40:38.429Z,2.40
2019-01-08T07:42:13.586Z,2.39
2019-01-08T07:43:49.118Z,2.38
2019-01-08T07:45:24.279Z,2.38
2019-01-08T07:46:59.433Z,2.40
2019-01-08T07:48:38.920Z,2.43
2019-01-08T07:50:14.599Z,2.48
2019-01-08T07:51:50.111Z,2.49
2019-01-08T07:53:26.344Z,2.52
2019-01-08T07:55:01.700Z,2.55
2019-01-08T07:56:37.325Z,2.57
2019-01-08T07:58:15.519Z,2.59
2019-01-08T07:59:53.005Z,2.59
2019-01-08T08:01:28.248Z,2.61
2019-01-08T08:03:03.437Z,2.58
2019-01-08T08:04:38.670Z,2.60
2019-01-08T08:06:13.915Z,2.59
2019-01-08T08:07:50.977Z,2.57
2019-01-08T08:09:28.118Z,2.56
2019-01-08T08:11:05.673Z,2.56
2019-01-08T08:12:40.926Z,2.53
2019-01-08T08:14:17.699Z,2.51
2019-01-08T08:15:53.146Z,2.53
2019-01-08T08:17:29.935Z,2.47
2019-01-08T08:19:05.200Z,2.49
2019-01-08T08:20:41.392Z,2.53
2019-01-08T08:22:16.569Z,2.54
2019-01-08T08:23:51.765Z,2.56
2019-01-08T08:25:27.126Z,2.55
2019-01-08T08:27:02.886Z,2.58
2019-01-08T08:28:38.242Z,2.59
2019-01-08T08:30:17.021Z,2.62
2019-01-08T08:31:52.659Z,2.61
2019-01-08T08:33:28.342Z,2.67
2019-01-08T08:35:08.506Z,2.67
2019-01-08T08:36:42.386Z,2.68
2019-01-08T08:38:20.934Z,2.69
2019-01-08T08:39:56.774Z,2.70
2019-01-08T08:41:31.958Z,2.69
2019-01-08T08:43:09.418Z,2.72
2019-01-08T08:44:47.795Z,2.72
2019-01-08T08:46:23.317Z,2.74
2019-01-08T08:47:58.545Z,2.74
2019-01-08T08:49:33.816Z,2.77
2019-01-08T08:51:09.359Z,2.79
2019-01-08T08:52:45.249Z,2.79
2019-01-08T08:54:21.222Z,2.79
2019-01-08T08:55:57.971Z,2.82
2019-01-08T08:57:33.132Z,2.86
2019-01-08T08:59:09.242Z,2.85
2019-01-08T09:00:47.572Z,2.86
2019-01-08T09:02:22.772Z,2.87
2019-01-08T09:03:58.047Z,2.88
2019-01-08T09:05:33.809Z,2.89
2019-01-08T09:07:11.375Z,2.91
2019-01-08T09:08:46.875Z,2.91
2019-01-08T09:10:22.476Z,2.92
2019-01-08T09:11:58.161Z,2.91
2019-01-08T09:13:33.315Z,2.88
2019-01-08T09:15:08.835Z,2.84
2019-01-08T09:16:44.949Z,2.81
2019-01-08T09:18:27.580Z,2.79
2019-01-08T09:20:04.924Z,2.79
2019-01-08T09:21:46.683Z,2.78
2019-01-08T09:23:22.929Z,2.78
2019-01-08T09:25:01.331Z,2.80
2019-01-08T09:26:36.707Z,2.77
2019-01-08T09:28:13.280Z,2.77
2019-01-08T09:29:49.169Z,2.77
2019-01-08T09:31:26.717Z,2.77
2019-01-08T09:33:03.468Z,2.74
2019-01-08T09:34:39.563Z,2.74
2019-01-08T09:36:14.857Z,2.71
2019-01-08T09:37:52.782Z,2.69
2019-01-08T09:39:27.721Z,2.69
2019-01-08T09:41:03.152Z,2.67
2019-01-08T09:42:42.764Z,2.67
2019-01-08T09:44:17.941Z,2.66
2019-01-08T09:45:57.456Z,2.68
2019-01-08T09:47:38.490Z,2.68
2019-01-08T09:49:14.659Z,2.70
2019-01-08T09:50:52.700Z,2.69
2019-01-08T09:52:29.669Z,2.71
2019-01-08T09:54:08.281Z,2.71
2019-01-08T09:55:46.401Z,2.69
2019-01-08T09:57:25.741Z,2.67
2019-01-08T09:59:03.120Z,2.70
2019-01-08T10:00:39.929Z,2.68
2019-01-08T10:02:17.895Z,2.70
2019-01-08T10:03:58.668Z,2.74
2019-01-08T10:05:43.114Z,2.79
2019-01-08T10:07:18.922Z,2.78
2019-01-08T10:08:55.707Z,2.80
2019-01-08T10:10:34.177Z,2.81
2019-01-08T10:12:26.489Z,2.80
2019-01-08T10:14:05.774Z,2.82
2019-01-08T10:15:43.838Z,2.79
2019-01-08T10:17:25.235Z,2.78
2019-01-08T10:19:13.543Z,2.79
2019-01-08T10:20:48.971Z,2.78
2019-01-08T10:22:30.533Z,2.78
2019-01-08T10:24:05.893Z,2.79
2019-01-08T10:25:45.212Z,2.80
2019-01-08T10:27:21.979Z,2.79
2019-01-08T10:28:57.738Z,2.80
2019-01-08T10:30:34.431Z,2.80
2019-01-08T10:32:10.406Z,2.84
2019-01-08T10:33:45.674Z,2.83
2019-01-08T10:35:28.892Z,2.82
2019-01-08T10:37:04.785Z,2.83
2019-01-08T10:38:43.808Z,2.87
2019-01-08T10:40:23.751Z,2.86
2019-01-08T10:42:00.511Z,2.87
2019-01-08T10:43:38.300Z,2.86
2019-01-08T10:45:21.423Z,2.87
2019-01-08T10:46:58.161Z,2.85
2019-01-08T10:48:33.988Z,2.89
2019-01-08T10:50:13.314Z,2.94
2019-01-08T10:51:50.310Z,2.95
2019-01-08T10:53:32.243Z,2.98
2019-01-08T10:55:07.778Z,3.00
2019-01-08T10:56:42.980Z,3.03
2019-01-08T10:58:18.228Z,3.04
2019-01-08T10:59:53.692Z,3.06
2019-01-08T11:01:40.449Z,3.07
2019-01-08T11:03:12.318Z,3.05
2019-01-08T11:04:48.477Z,3.06
2019-01-08T11:06:26.948Z,3.04
2019-01-08T11:08:12.051Z,3.02
2019-01-08T11:09:47.462Z,3.01
2019-01-08T11:11:25.438Z,3.00
2019-01-08T11:13:01.707Z,2.99
2019-01-08T11:14:37.088Z,2.98
2019-01-08T11:16:14.690Z,2.98
2019-01-08T11:17:49.969Z,2.98
2019-01-08T11:19:29.569Z,2.98
2019-01-08T11:21:07.774Z,3.01
2019-01-08T11:22:45.212Z,3.01
2019-01-08T11:24:21.132Z,3.02
2019-01-08T11:25:56.836Z,3.03
2019-01-08T11:27:37.382Z,3.07
2019-01-08T11:29:15.970Z,3.12
2019-01-08T11:30:57.842Z,3.15
2019-01-08T11:32:47.462Z,3.14
2019-01-08T11:34:26.340Z,3.10
2019-01-08T11:36:04.596Z,3.13
2019-01-08T11:37:44.052Z,3.08
2019-01-08T11:39:25.218Z,3.11
2019-01-08T11:41:03.259Z,3.10
2019-01-08T11:42:44.410Z,3.13
2019-01-08T11:44:19.711Z,3.11
2019-01-08T11:46:01.374Z,3.11
2019-01-08T11:47:45.515Z,3.11
2019-01-08T11:49:26.893Z,3.05
2019-01-08T11:51:05.215Z,3.06
2019-01-08T11:52:40.549Z,3.05
2019-01-08T11:54:15.804Z,2.94
2019-01-08T11:55:52.515Z,2.89
2019-01-08T11:57:29.988Z,2.80
2019-01-08T11:59:07.080Z,2.78
2019-01-08T12:00:47.553Z,2.78
2019-01-08T12:02:30.759Z,2.77
2019-01-08T12:04:11.972Z,2.81
2019-01-08T12:06:01.189Z,2.88
2019-01-08T12:07:41.740Z,2.92
2019-01-08T12:09:17.966Z,2.98
2019-01-08T12:10:58.617Z,3.02
2019-01-08T12:12:38.490Z,3.01
2019-01-08T12:14:19.290Z,3.04
2019-01-08T12:15:59.029Z,3.07
2019-01-08T12:17:34.599Z,3.11
2019-01-08T12:19:13.157Z,3.13
2019-01-08T12:20:48.902Z,3.12
2019-01-08T12:22:40.608Z,3.16
2019-01-08T12:24:11.944Z,3.18
2019-01-08T12:25:54.569Z,3.24
2019-01-08T12:27:40.749Z,3.25
2019-01-08T12:29:25.697Z,3.29
2019-01-08T12:31:09.752Z,3.26
2019-01-08T12:32:53.623Z,3.23
2019-01-08T12:34:44.578Z,3.15
2019-01-08T12:36:22.625Z,3.11
2019-01-08T12:38:00.106Z,3.08
2019-01-08T12:41:35.303Z,2.98
2019-01-08T12:43:19.785Z,2.91
2019-01-08T12:44:54.620Z,2.82
2019-01-08T12:46:32.184Z,2.82
2019-01-08T12:48:08.250Z,2.83
2019-01-08T12:49:47.171Z,2.90
2019-01-08T12:51:25.403Z,2.93
2019-01-08T12:53:01.245Z,2.98
2019-01-08T12:54:39.699Z,3.00
2019-01-08T12:56:16.512Z,3.02
2019-01-08T12:57:56.533Z,3.04
2019-01-08T12:59:33.358Z,3.07
2019-01-08T13:01:09.607Z,3.04
2019-01-08T13:02:45.312Z,3.07
2019-01-08T13:04:23.401Z,3.12
2019-01-08T13:06:01.987Z,3.13
2019-01-08T13:07:39.255Z,3.15
2019-01-08T13:09:14.835Z,3.18
2019-01-08T13:10:53.310Z,3.21
2019-01-08T13:12:29.572Z,3.19
2019-01-08T13:14:05.447Z,3.20
2019-01-08T13:15:49.743Z,3.21
2019-01-08T13:17:29.368Z,3.20
2019-01-08T13:19:05.307Z,3.17
2019-01-08T13:20:41.296Z,3.17
2019-01-08T13:22:20.564Z,3.21
2019-01-08T13:24:05.788Z,3.23
2019-01-08T13:25:46.464Z,3.28
2019-01-08T13:27:30.855Z,3.27
2019-01-08T13:29:12.939Z,3.33
2019-01-08T13:30:49.423Z,3.32
2019-01-08T13:32:38.799Z,3.35
2019-01-08T13:34:30.512Z,3.40
2019-01-08T13:36:08.189Z,3.42
2019-01-08T13:37:51.795Z,3.46
2019-01-08T13:39:36.238Z,3.50
2019-01-08T13:41:27.992Z,3.55
2019-01-08T13:43:03.577Z,3.62
2019-01-08T13:44:56.499Z,3.63
2019-01-08T13:46:33.107Z,3.64
2019-01-08T13:48:14.674Z,3.63
2019-01-08T13:50:05.603Z,3.72
2019-01-08T13:51:47.061Z,3.76
2019-01-08T13:53:22.030Z,3.79
2019-01-08T13:55:09.027Z,3.80
2019-01-08T13:56:47.909Z,3.78
2019-01-08T13:58:28.058Z,3.82
2019-01-08T14:00:13.334Z,3.71
2019-01-08T14:01:54.429Z,3.66
2019-01-08T14:03:40.590Z,3.57
2019-01-08T14:05:18.188Z,3.57
2019-01-08T14:06:57.880Z,3.58
2019-01-08T14:08:46.453Z,3.54
2019-01-08T14:10:36.191Z,3.51
2019-01-08T14:12:16.260Z,3.47
2019-01-08T14:14:08.001Z,3.47
2019-01-08T14:15:44.211Z,3.41
2019-01-08T14:17:29.953Z,3.36
2019-01-08T14:19:07.830Z,3.34
2019-01-08T14:20:44.169Z,3.31
2019-01-08T14:22:19.819Z,3.32
2019-01-08T14:23:58.134Z,3.28
2019-01-08T14:25:35.930Z,3.27
2019-01-08T14:27:15.419Z,3.22
2019-01-08T14:28:55.341Z,3.13
2019-01-08T14:30:38.581Z,2.94
2019-01-08T14:32:18.964Z,2.90
2019-01-08T14:33:54.758Z,2.93
2019-01-08T14:35:31.612Z,2.88
2019-01-08T14:37:07.562Z,2.87
2019-01-08T14:38:44.737Z,2.88
2019-01-08T14:40:19.997Z,2.89
2019-01-08T14:41:55.412Z,2.91
2019-01-08T14:43:32.133Z,2.94
2019-01-08T14:45:10.727Z,2.94
2019-01-08T14:46:49.048Z,2.96
2019-01-08T14:48:26.082Z,3.02
2019-01-08T14:50:28.961Z,3.00
2019-01-08T14:52:13.441Z,3.05
2019-01-08T14:54:02.485Z,3.08
2019-01-08T14:55:45.347Z,3.08
2019-01-08T14:58:16.432Z,3.11
2019-01-08T15:00:15.451Z,3.10
2019-01-08T15:01:53.303Z,3.06
2019-01-08T15:03:29.701Z,3.07
2019-01-08T15:05:07.607Z,3.04
2019-01-08T15:07:01.741Z,2.99
2019-01-08T15:08:42.097Z,2.97
2019-01-08T15:10:20.198Z,2.94
2019-01-08T15:12:02.283Z,2.95
2019-01-08T15:13:51.667Z,2.95
2019-01-08T15:15:29.290Z,2.97
2019-01-08T15:17:09.102Z,2.98
2019-01-08T15:18:45.894Z,2.93
2019-01-08T15:20:22.030Z,2.87
2019-01-08T15:22:00.946Z,2.83
2019-01-08T15:23:39.243Z,2.80
2019-01-08T15:25:18.509Z,2.74
2019-01-08T15:26:54.859Z,2.68
2019-01-08T15:28:30.851Z,2.63
2019-01-08T15:30:13.259Z,2.60
2019-01-08T15:31:54.852Z,2.57
2019-01-08T15:33:30.517Z,2.56
2019-01-08T15:35:15.389Z,2.57
2019-01-08T15:36:53.585Z,2.59
2019-01-08T15:38:54.753Z,2.59
2019-01-08T15:40:39.299Z,2.58
2019-01-08T15:42:17.144Z,2.54
2019-01-08T15:43:56.532Z,2.53
2019-01-08T15:45:33.173Z,2.53
2019-01-08T15:47:15.619Z,2.51
2019-01-08T15:48:57.248Z,2.50
2019-01-08T15:50:37.326Z,2.47
2019-01-08T15:52:28.730Z,2.46
2019-01-08T15:54:06.403Z,2.46
2019-01-08T15:55:44.905Z,2.43
2019-01-08T15:57:26.075Z,2.44
2019-01-08T15:59:15.625Z,2.43
2019-01-08T16:00:53.665Z,2.39
2019-01-08T16:02:30.200Z,2.40
2019-01-08T16:04:11.460Z,2.40
2019-01-08T16:05:50.885Z,2.38
2019-01-08T16:07:30.916Z,2.38
2019-01-08T16:09:16.224Z,2.38
2019-01-08T16:10:58.798Z,2.35
2019-01-08T16:12:55.271Z,2.34
2019-01-08T16:14:37.714Z,2.35
2019-01-08T16:16:25.112Z,2.34
2019-01-08T16:18:09.451Z,2.32
2019-01-08T16:19:52.919Z,2.30
2019-01-08T16:21:34.446Z,2.29
2019-01-08T16:23:10.411Z,2.28
2019-01-08T16:24:46.554Z,2.31
2019-01-08T16:26:21.956Z,2.32
2019-01-08T16:27:59.667Z,2.31
2019-01-08T16:29:39.070Z,2.32
2019-01-08T16:31:29.565Z,2.32
2019-01-08T16:33:05.701Z,2.30
2019-01-08T16:34:43.499Z,2.29
2019-01-08T16:36:19.983Z,2.26
2019-01-08T16:37:58.880Z,2.26
2019-01-08T16:39:40.371Z,2.26
2019-01-08T16:41:21.225Z,2.26
2019-01-08T16:42:59.216Z,2.29
2019-01-08T16:44:38.049Z,2.30
2019-01-08T16:46:15.529Z,2.37
2019-01-08T16:47:54.984Z,2.40
2019-01-08T16:49:31.256Z,2.45
2019-01-08T16:51:08.470Z,2.47
2019-01-08T16:52:45.157Z,2.48
2019-01-08T16:54:21.341Z,2.48
2019-01-08T16:55:59.189Z,2.50
2019-01-08T16:57:43.010Z,2.51
2019-01-08T16:59:25.359Z,2.54
2019-01-08T17:01:01.526Z,2.53
2019-01-08T17:02:42.360Z,2.50
2019-01-08T17:04:22.015Z,2.50
2019-01-08T17:06:01.186Z,2.48
2019-01-08T17:07:39.001Z,2.50
2019-01-08T17:09:15.133Z,2.47
2019-01-08T17:10:50.708Z,2.43
2019-01-08T17:12:27.703Z,2.45
2019-01-08T17:14:05.094Z,2.43
2019-01-08T17:15:42.213Z,2.41
2019-01-08T17:17:23.796Z,2.41
2019-01-08T17:19:02.833Z,2.40
2019-01-08T17:20:40.281Z,2.40
2019-01-08T17:22:29.397Z,2.32
2019-01-08T17:24:06.372Z,2.23
2019-01-08T17:25:47.740Z,2.15
2019-01-08T17:27:20.219Z,1.89
2019-01-08T17:29:07.157Z,1.49
2019-01-08T17:30:45.209Z,1.10
2019-01-08T17:32:30.246Z,0.92
2019-01-08T17:34:18.587Z,0.86
2019-01-08T17:36:00.966Z,1.01
2019-01-08T17:37:38.699Z,1.09
2019-01-08T17:39:25.149Z,1.12
2019-01-08T17:41:18.458Z,1.12
2019-01-08T17:42:55.397Z,1.14
2019-01-08T17:44:42.553Z,1.29
2019-01-08T17:46:19.980Z,1.37
2019-01-08T17:47:57.885Z,1.45
2019-01-08T17:49:41.169Z,1.54
2019-01-08T17:51:17.190Z,1.56
2019-01-08T17:52:52.853Z,1.57
2019-01-08T17:54:33.640Z,1.57
2019-01-08T17:56:09.785Z,1.64
2019-01-08T17:57:48.084Z,1.66
2019-01-08T17:59:25.938Z,1.67
2019-01-08T18:01:09.753Z,1.69
2019-01-08T18:02:53.312Z,1.72
2019-01-08T18:04:40.146Z,1.73
2019-01-08T18:06:16.063Z,1.73
2019-01-08T18:07:54.653Z,1.78
2019-01-08T18:09:30.926Z,1.80
2019-01-08T18:11:14.434Z,1.87
2019-01-08T18:13:00.022Z,1.88
2019-01-08T18:14:42.655Z,1.96
2019-01-08T18:16:19.695Z,2.00
2019-01-08T18:17:55.321Z,2.05
2019-01-08T18:19:33.923Z,2.16
2019-01-08T18:21:12.675Z,2.17
2019-01-08T18:22:57.046Z,2.16
2019-01-08T18:24:42.045Z,2.13
2019-01-08T18:27:56.940Z,2.18
2019-01-08T18:32:24.743Z,2.26
2019-01-08T18:37:48.948Z,2.22
2019-01-08T18:39:31.371Z,2.24
2019-01-08T18:46:02.345Z,2.31
2019-01-08T18:47:44.633Z,2.27
2019-01-08T18:49:52.123Z,2.24
2019-01-08T18:51:49.514Z,2.19
2019-01-08T18:53:46.466Z,2.09
2019-01-08T18:59:07.713Z,1.93
2019-01-08T19:13:40.623Z,1.69
2019-01-08T19:15:27.826Z,1.71
2019-01-08T19:17:06.206Z,1.80
2019-01-08T19:19:00.430Z,1.85
2019-01-08T19:20:36.625Z,1.90
2019-01-08T19:22:21.145Z,1.94
2019-01-08T19:24:04.186Z,1.91
2019-01-08T19:25:40.555Z,1.85
2019-01-08T19:27:18.519Z,1.54
2019-01-08T19:28:54.533Z,1.34
2019-01-08T19:30:49.245Z,1.20
2019-01-08T19:32:33.328Z,1.20
2019-01-08T19:36:25.557Z,1.20
2019-01-08T19:38:23.263Z,1.23
2019-01-08T19:40:07.034Z,1.24
2019-01-08T19:41:43.273Z,1.24
2019-01-08T19:43:34.009Z,1.27
2019-01-08T19:45:15.248Z,1.26
2019-01-08T19:46:52.157Z,1.25
2019-01-08T19:48:29.138Z,1.25
2019-01-08T19:50:08.260Z,1.25
2019-01-08T19:51:43.372Z,1.25
2019-01-08T19:53:20.927Z,1.27
2019-01-08T19:54:58.236Z,1.27
2019-01-08T19:56:34.831Z,1.29
2019-01-08T19:58:12.580Z,1.32
2019-01-08T19:59:52.053Z,1.34
2019-01-08T20:01:32.494Z,1.36
2019-01-08T20:03:09.387Z,1.41
2019-01-08T20:04:45.466Z,1.47
2019-01-08T20:06:21.465Z,1.51
2019-01-08T20:07:57.391Z,1.53
2019-01-08T20:09:33.406Z,1.56
2019-01-08T20:11:08.754Z,1.60
2019-01-08T20:12:44.869Z,1.64
2019-01-08T20:14:24.234Z,1.72
2019-01-08T20:18:50.220Z,1.77
2019-01-08T20:22:58.264Z,1.83
2019-01-08T20:24:45.327Z,1.82
2019-01-08T20:32:52.547Z,1.89
2019-01-08T20:34:33.312Z,1.90
2019-01-08T20:36:10.174Z,1.91
2019-01-08T20:37:51.412Z,1.92
2019-01-08T20:39:28.883Z,1.91
2019-01-08T20:41:05.076Z,1.92
2019-01-08T20:42:42.701Z,1.90
2019-01-08T20:44:18.401Z,1.89
2019-01-08T20:47:54.329Z,1.89
2019-01-08T20:49:31.953Z,1.89
2019-01-08T20:51:08.062Z,1.90
2019-01-08T20:52:44.201Z,1.91
2019-01-08T20:55:16.040Z,1.91
2019-01-08T20:59:10.530Z,1.90
2019-01-08T21:03:10.690Z,1.88
2019-01-08T21:11:08.471Z,1.84
2019-01-08T21:12:43.575Z,1.83
2019-01-08T21:16:34.385Z,1.78
2019-01-08T21:18:28.814Z,1.74
2019-01-08T21:22:35.946Z,1.68
2019-01-08T21:24:28.410Z,1.62
2019-01-08T21:30:22.602Z,1.56
2019-01-08T21:35:06.851Z,1.57
2019-01-08T21:42:58.105Z,1.70
2019-01-08T21:44:39.782Z,1.57
2019-01-08T21:46:59.376Z,1.51
2019-01-08T21:48:51.082Z,1.47
2019-01-08T21:51:02.362Z,1.51
2019-01-08T21:52:48.308Z,1.54
2019-01-08T21:54:24.814Z,1.59
2019-01-08T21:56:21.489Z,1.62
2019-01-08T21:57:59.222Z,1.61
2019-01-08T22:04:28.983Z,1.63
2019-01-08T22:06:36.163Z,1.61
2019-01-08T22:13:17.496Z,1.53
2019-01-08T22:22:09.254Z,1.46
2019-01-08T22:24:14.686Z,1.47
2019-01-08T22:26:01.425Z,1.47
2019-01-08T22:27:46.906Z,1.48
2019-01-08T22:34:28.720Z,1.55
2019-01-08T22:36:21.295Z,1.52
2019-01-08T22:41:02.663Z,1.51
2019-01-08T22:43:18.308Z,1.54
2019-01-08T22:49:39.784Z,1.41
2019-01-08T22:51:47.966Z,1.39
2019-01-08T22:55:57.461Z,1.40
2019-01-08T22:57:35.520Z,1.46
2019-01-08T22:59:30.941Z,1.49
2019-01-08T23:01:44.690Z,1.51
2019-01-08T23:03:22.613Z,1.51
2019-01-08T23:05:00.207Z,1.52
2019-01-08T23:11:37.469Z,1.44
2019-01-08T23:15:54.176Z,1.00
2019-01-08T23:17:43.366Z,0.72
2019-01-08T23:19:31.125Z,0.67
2019-01-08T23:21:20.028Z,0.56
2019-01-08T23:23:37.282Z,0.44
2019-01-08T23:25:17.249Z,0.37
2019-01-08T23:29:11.050Z,0.32
2019-01-08T23:33:06.650Z,0.42
2019-01-08T23:34:42.413Z,0.45
2019-01-08T23:39:16.095Z,0.52
2019-01-08T23:41:11.095Z,0.53
2019-01-08T23:45:19.915Z,0.65
2019-01-08T23:47:06.897Z,0.73
2019-01-08T23:48:54.377Z,0.76
2019-01-08T23:55:26.839Z,0.86
2019-01-08T23:59:01.131Z,0.93
